Jasper S — V2CQ4 — position and weather

sailwx.info

Track history (hours):
 
Tides and Currents Weather Stations Pressure Air Temp Water Temp Dewpoint Dewpoint Depression Visibility Wind Speed Wind Dir Waves Ship Positions

Jasper S

Last reported at 2014-Aug-22 19:28 UTC. Time now 2014-Aug-23 05:35 UTC.
Position N 39°26' W 000°19'.

Length 148 m; draft 7 m.

Type: Cargo ship. MMSI: 305079000.

Date/timePositionNaut miles runAvg speedWind from/ knotsBaromVisibWave heightAir tempDewpointWater temp
2014-Aug-22 19:28N 39°26' W 000°19'58 3.4
2014-Aug-22 02:24N 38°42' E 000°29'1412.7
2014-Aug-22 01:20N 38°29' E 000°26'1013.4
2014-Aug-22 00:33N 38°19' E 000°22'1313.4
2014-Aug-21 23:33N 38°06' E 000°18'1413.6
2014-Aug-21 22:34N 37°53' E 000°13'1413.8
2014-Aug-21 21:33N 37°40' E 000°09'1313.3
2014-Aug-21 20:33N 37°27' E 000°05'1413.7
2014-Aug-21 19:33N 37°14' E 000°00'1413.6
2014-Aug-21 18:33N 37°00' W 000°04'1313.4
2014-Aug-21 17:33N 36°47' W 000°08'1413.9
2014-Aug-21 16:33N 36°34' W 000°13'1714.3
2014-Aug-21 15:22N 36°18' W 000°18'1113.5
2014-Aug-21 14:33N 36°07' W 000°22'1413.9
2014-Aug-21 13:33N 35°55' W 000°30'1313.5
2014-Aug-21 12:33N 35°43' W 000°38'1 0.0
2014-Aug-21 00:28N 35°43' W 000°38'0 0.0
2014-Aug-20 23:31N 35°43' W 000°38'0 0.0
2014-Aug-20 21:22N 35°43' W 000°38'0 0.0
2014-Aug-20 18:13N 35°43' W 000°38'0 0.0
2014-Aug-20 17:31N 35°43' W 000°38'0 0.0
2014-Aug-20 16:28N 35°43' W 000°38'0 0.0
2014-Aug-20 09:10N 35°43' W 000°38'0 0.0
2014-Aug-20 07:22N 35°43' W 000°38'0 0.0
2014-Aug-20 06:28N 35°43' W 000°38'0 0.0
2014-Aug-20 05:27N 35°43' W 000°38'  
2014-Aug-15 21:19N 39°57' E 001°29'7314.9
2014-Aug-15 16:24N 41°06' E 002°05'1313.8
2014-Aug-15 15:28N 41°18' E 002°11'1 0.3
2014-Aug-15 10:32N 41°19' E 002°09'0 0.0
2014-Aug-15 08:33N 41°19' E 002°09'6 1.7
2014-Aug-15 05:18N 41°13' E 002°09'1 0.6
2014-Aug-15 03:33N 41°13' E 002°08'6 5.6
2014-Aug-15 02:31N 41°09' E 002°02'9 9.2
2014-Aug-15 01:33N 41°03' E 001°54'10 9.0
2014-Aug-15 00:27N 40°56' E 001°44'131 7.7
2014-Aug-14 07:33N 39°26' W 000°19'0 0.0
2014-Aug-14 06:18N 39°26' W 000°19'0 0.0
2014-Aug-14 05:06N 39°26' W 000°19'0 0.0
2014-Aug-14 04:33N 39°26' W 000°19'0 0.0
2014-Aug-14 03:33N 39°26' W 000°19'0 0.0
2014-Aug-14 02:24N 39°26' W 000°19'0 0.0
2014-Aug-14 01:33N 39°26' W 000°19'1 0.3
2014-Aug-13 23:16N 39°26' W 000°19'0 0.0
2014-Aug-13 22:31N 39°26' W 000°19'0 0.0
2014-Aug-13 21:28N 39°26' W 000°19'0 0.0
2014-Aug-13 20:31N 39°26' W 000°19'0 0.0
2014-Aug-13 19:31N 39°26' W 000°19'0 0.0
2014-Aug-13 18:28N 39°26' W 000°19'0 0.0
2014-Aug-13 17:31N 39°26' W 000°19'0 0.0
2014-Aug-13 16:31N 39°26' W 000°19'1 1.2
2014-Aug-13 15:34N 39°25' W 000°18'2 1.8
2014-Aug-13 14:33N 39°23' W 000°18'0 0.0
2014-Aug-13 13:33N 39°23' W 000°18'2 2.5
2014-Aug-13 12:33N 39°23' W 000°15'5712.8
2014-Aug-13 08:07N 38°37' E 000°28'813.5
2014-Aug-13 07:33N 38°30' E 000°26'2713.4
2014-Aug-13 05:32N 38°04' E 000°17'1413.4
2014-Aug-13 04:30N 37°50' E 000°12'1513.9
2014-Aug-13 03:26N 37°36' E 000°08'1213.5
2014-Aug-13 02:33N 37°24' E 000°04'1413.6
2014-Aug-13 01:33N 37°11' W 000°01'1413.5
2014-Aug-13 00:32N 36°58' W 000°05'1313.7
2014-Aug-12 23:33N 36°45' W 000°09'1413.7
2014-Aug-12 22:33N 36°32' W 000°13'1413.8
2014-Aug-12 21:33N 36°18' W 000°17'6 4.4
2014-Aug-12 20:18N 36°13' W 000°20'  
Track history (hours):
 
Tides and Currents Weather Stations Pressure Air Temp Water Temp Dewpoint Dewpoint Depression Visibility Wind Speed Wind Dir Waves Ship Positions

Jasper S

Last reported at 2014-Aug-22 19:28 UTC. Time now 2014-Aug-23 05:35 UTC.
Position N 39°26' W 000°19'.

Length 148 m; draft 7 m.

Type: Cargo ship. MMSI: 305079000.

Date/timePositionNaut miles runAvg speedWind from/ knotsBaromVisibWave heightAir tempDewpointWater temp
2014-Aug-22 19:28N 39°26' W 000°19'58 3.4
2014-Aug-22 02:24N 38°42' E 000°29'1412.7
2014-Aug-22 01:20N 38°29' E 000°26'1013.4
2014-Aug-22 00:33N 38°19' E 000°22'1313.4
2014-Aug-21 23:33N 38°06' E 000°18'1413.6
2014-Aug-21 22:34N 37°53' E 000°13'1413.8
2014-Aug-21 21:33N 37°40' E 000°09'1313.3
2014-Aug-21 20:33N 37°27' E 000°05'1413.7
2014-Aug-21 19:33N 37°14' E 000°00'1413.6
2014-Aug-21 18:33N 37°00' W 000°04'1313.4
2014-Aug-21 17:33N 36°47' W 000°08'1413.9
2014-Aug-21 16:33N 36°34' W 000°13'1714.3
2014-Aug-21 15:22N 36°18' W 000°18'1113.5
2014-Aug-21 14:33N 36°07' W 000°22'1413.9
2014-Aug-21 13:33N 35°55' W 000°30'1313.5
2014-Aug-21 12:33N 35°43' W 000°38'1 0.0
2014-Aug-21 00:28N 35°43' W 000°38'0 0.0
2014-Aug-20 23:31N 35°43' W 000°38'0 0.0
2014-Aug-20 21:22N 35°43' W 000°38'0 0.0
2014-Aug-20 18:13N 35°43' W 000°38'0 0.0
2014-Aug-20 17:31N 35°43' W 000°38'0 0.0
2014-Aug-20 16:28N 35°43' W 000°38'0 0.0
2014-Aug-20 09:10N 35°43' W 000°38'0 0.0
2014-Aug-20 07:22N 35°43' W 000°38'0 0.0
2014-Aug-20 06:28N 35°43' W 000°38'0 0.0
2014-Aug-20 05:27N 35°43' W 000°38'  
2014-Aug-15 21:19N 39°57' E 001°29'7314.9
2014-Aug-15 16:24N 41°06' E 002°05'1313.8
2014-Aug-15 15:28N 41°18' E 002°11'1 0.3
2014-Aug-15 10:32N 41°19' E 002°09'0 0.0
2014-Aug-15 08:33N 41°19' E 002°09'6 1.7
2014-Aug-15 05:18N 41°13' E 002°09'1 0.6
2014-Aug-15 03:33N 41°13' E 002°08'6 5.6
2014-Aug-15 02:31N 41°09' E 002°02'9 9.2
2014-Aug-15 01:33N 41°03' E 001°54'10 9.0
2014-Aug-15 00:27N 40°56' E 001°44'131 7.7
2014-Aug-14 07:33N 39°26' W 000°19'0 0.0
2014-Aug-14 06:18N 39°26' W 000°19'0 0.0
2014-Aug-14 05:06N 39°26' W 000°19'0 0.0
2014-Aug-14 04:33N 39°26' W 000°19'0 0.0
2014-Aug-14 03:33N 39°26' W 000°19'0 0.0
2014-Aug-14 02:24N 39°26' W 000°19'0 0.0
2014-Aug-14 01:33N 39°26' W 000°19'1 0.3
2014-Aug-13 23:16N 39°26' W 000°19'0 0.0
2014-Aug-13 22:31N 39°26' W 000°19'0 0.0
2014-Aug-13 21:28N 39°26' W 000°19'0 0.0
2014-Aug-13 20:31N 39°26' W 000°19'0 0.0
2014-Aug-13 19:31N 39°26' W 000°19'0 0.0
2014-Aug-13 18:28N 39°26' W 000°19'0 0.0
2014-Aug-13 17:31N 39°26' W 000°19'0 0.0
2014-Aug-13 16:31N 39°26' W 000°19'1 1.2
2014-Aug-13 15:34N 39°25' W 000°18'2 1.8
2014-Aug-13 14:33N 39°23' W 000°18'0 0.0
2014-Aug-13 13:33N 39°23' W 000°18'2 2.5
2014-Aug-13 12:33N 39°23' W 000°15'5712.8
2014-Aug-13 08:07N 38°37' E 000°28'813.5
2014-Aug-13 07:33N 38°30' E 000°26'2713.4
2014-Aug-13 05:32N 38°04' E 000°17'1413.4
2014-Aug-13 04:30N 37°50' E 000°12'1513.9
2014-Aug-13 03:26N 37°36' E 000°08'1213.5
2014-Aug-13 02:33N 37°24' E 000°04'1413.6
2014-Aug-13 01:33N 37°11' W 000°01'1413.5
2014-Aug-13 00:32N 36°58' W 000°05'1313.7
2014-Aug-12 23:33N 36°45' W 000°09'1413.7
2014-Aug-12 22:33N 36°32' W 000°13'1413.8
2014-Aug-12 21:33N 36°18' W 000°17'6 4.4
2014-Aug-12 20:18N 36°13' W 000°20'  

Dump ship's entire track history